createdAt,value
2018-06-02T00:00:21.675Z,17.83
2018-06-02T00:01:21.732Z,17.80
2018-06-02T00:02:21.666Z,17.79
2018-06-02T00:03:21.736Z,17.77
2018-06-02T00:04:21.666Z,17.79
2018-06-02T00:05:21.826Z,17.76
2018-06-02T00:06:21.733Z,17.75
2018-06-02T00:07:21.668Z,17.75
2018-06-02T00:08:21.774Z,17.75
2018-06-02T00:09:21.707Z,17.73
2018-06-02T00:10:21.706Z,17.73
2018-06-02T00:11:21.818Z,17.72
2018-06-02T00:12:21.664Z,17.73
2018-06-02T00:13:21.710Z,17.72
2018-06-02T00:14:21.723Z,17.71
2018-06-02T00:15:21.775Z,17.71
2018-06-02T00:16:21.753Z,17.71
2018-06-02T00:17:21.757Z,17.72
2018-06-02T00:18:21.683Z,17.72
2018-06-02T00:19:21.681Z,17.72
2018-06-02T00:20:21.679Z,17.71
2018-06-02T00:21:21.750Z,17.72
2018-06-02T00:22:21.683Z,17.72
2018-06-02T00:23:21.686Z,17.72
2018-06-02T00:24:21.687Z,17.71
2018-06-02T00:25:21.684Z,17.69
2018-06-02T00:26:21.690Z,17.71
2018-06-02T00:27:21.684Z,17.69
2018-06-02T00:28:21.686Z,17.71
2018-06-02T00:29:21.684Z,17.75
2018-06-02T00:30:21.750Z,17.72
2018-06-02T00:31:21.678Z,17.69
2018-06-02T00:32:21.752Z,17.69
2018-06-02T00:33:21.693Z,17.72
2018-06-02T00:34:21.751Z,17.72
2018-06-02T00:35:21.682Z,17.75
2018-06-02T00:36:21.678Z,17.75
2018-06-02T00:37:21.757Z,17.73
2018-06-02T00:38:21.687Z,17.72
2018-06-02T00:39:21.692Z,17.72
2018-06-02T00:40:21.694Z,17.72
2018-06-02T00:41:21.695Z,17.71
2018-06-02T00:42:21.773Z,17.68
2018-06-02T00:43:21.776Z,17.68
2018-06-02T00:44:21.696Z,17.69
2018-06-02T00:45:21.828Z,17.68
2018-06-02T00:46:21.773Z,17.66
2018-06-02T00:47:21.703Z,17.66
2018-06-02T00:48:21.793Z,17.68
2018-06-02T00:49:21.685Z,17.66
2018-06-02T00:50:21.754Z,17.66
2018-06-02T00:51:21.812Z,17.65
2018-06-02T00:52:21.697Z,17.66
2018-06-02T00:53:21.807Z,17.69
2018-06-02T00:54:21.715Z,17.69
2018-06-02T00:55:21.793Z,17.69
2018-06-02T00:56:21.799Z,17.68
2018-06-02T00:57:21.792Z,17.71
2018-06-02T00:58:21.786Z,17.68
2018-06-02T00:59:21.714Z,17.68
2018-06-02T01:00:21.737Z,17.68
2018-06-02T01:01:21.817Z,17.65
2018-06-02T01:02:21.754Z,17.65
2018-06-02T01:03:21.812Z,17.65
2018-06-02T01:04:21.807Z,17.65
2018-06-02T01:05:21.801Z,17.65
2018-06-02T01:06:21.789Z,17.65
2018-06-02T01:07:21.821Z,17.65
2018-06-02T01:08:21.719Z,17.64
2018-06-02T01:09:21.703Z,17.66
2018-06-02T01:10:21.705Z,17.65
2018-06-02T01:11:21.761Z,17.65
2018-06-02T01:12:21.806Z,17.65
2018-06-02T01:13:21.761Z,17.66
2018-06-02T01:14:21.706Z,17.65
2018-06-02T01:15:21.796Z,17.64
2018-06-02T01:16:21.825Z,17.64
2018-06-02T01:17:21.824Z,17.64
2018-06-02T01:18:21.855Z,17.65
2018-06-02T01:19:21.781Z,17.62
2018-06-02T01:20:21.756Z,17.61
2018-06-02T01:21:21.723Z,17.60
2018-06-02T01:22:21.693Z,17.60
2018-06-02T01:23:21.800Z,17.60
2018-06-02T01:24:21.798Z,17.60
2018-06-02T01:25:21.729Z,17.58
2018-06-02T01:26:21.797Z,17.57
2018-06-02T01:27:21.691Z,17.57
2018-06-02T01:28:21.753Z,17.55
2018-06-02T01:29:21.803Z,17.53
2018-06-02T01:30:21.738Z,17.51
2018-06-02T01:31:21.772Z,17.53
2018-06-02T01:32:21.725Z,17.53
2018-06-02T01:33:21.758Z,17.54
2018-06-02T01:34:21.721Z,17.55
2018-06-02T01:35:21.815Z,17.53
2018-06-02T01:36:21.771Z,17.54
2018-06-02T01:37:21.727Z,17.53
2018-06-02T01:38:21.722Z,17.53
2018-06-02T01:39:21.770Z,17.53
2018-06-02T01:40:21.743Z,17.51
2018-06-02T01:41:21.817Z,17.53
2018-06-02T01:42:21.806Z,17.54
2018-06-02T01:43:21.829Z,17.53
2018-06-02T01:44:21.744Z,17.50
2018-06-02T01:45:21.734Z,17.51
2018-06-02T01:46:21.896Z,17.51
2018-06-02T01:47:21.806Z,17.53
2018-06-02T01:48:21.804Z,17.53
2018-06-02T01:49:21.711Z,17.53
2018-06-02T01:50:21.835Z,17.54
2018-06-02T01:51:21.775Z,17.55
2018-06-02T01:52:21.746Z,17.54
2018-06-02T01:53:21.820Z,17.54
2018-06-02T01:54:21.737Z,17.51
2018-06-02T01:55:21.823Z,17.50
2018-06-02T01:56:21.771Z,17.51
2018-06-02T01:57:21.815Z,17.53
2018-06-02T01:58:21.829Z,17.51
2018-06-02T01:59:21.845Z,17.50
2018-06-02T02:00:21.810Z,17.49
2018-06-02T02:01:21.752Z,17.49
2018-06-02T02:02:21.767Z,17.49
2018-06-02T02:03:21.831Z,17.47
2018-06-02T02:04:21.749Z,17.46
2018-06-02T02:05:21.756Z,17.44
2018-06-02T02:06:21.767Z,17.44
2018-06-02T02:07:21.831Z,17.44
2018-06-02T02:08:21.715Z,17.43
2018-06-02T02:09:21.739Z,17.43
2018-06-02T02:10:21.721Z,17.43
2018-06-02T02:11:21.745Z,17.43
2018-06-02T02:12:21.755Z,17.43
2018-06-02T02:13:21.832Z,17.42
2018-06-02T02:14:21.831Z,17.43
2018-06-02T02:15:21.859Z,17.43
2018-06-02T02:16:21.764Z,17.43
2018-06-02T02:17:21.790Z,17.44
2018-06-02T02:18:21.749Z,17.47
2018-06-02T02:19:21.775Z,17.49
2018-06-02T02:20:21.855Z,17.49
2018-06-02T02:21:21.867Z,17.51
2018-06-02T02:22:21.796Z,17.50
2018-06-02T02:23:21.829Z,17.49
2018-06-02T02:24:21.830Z,17.47
2018-06-02T02:25:21.841Z,17.49
2018-06-02T02:26:21.809Z,17.47
2018-06-02T02:27:21.795Z,17.44
2018-06-02T02:28:21.804Z,17.43
2018-06-02T02:29:26.202Z,17.42
2018-06-02T02:30:21.820Z,17.39
2018-06-02T02:31:21.846Z,17.39
2018-06-02T02:32:21.808Z,17.39
2018-06-02T02:33:21.861Z,17.35
2018-06-02T02:34:21.779Z,17.31
2018-06-02T02:35:21.782Z,17.29
2018-06-02T02:36:21.782Z,17.29
2018-06-02T02:37:21.870Z,17.31
2018-06-02T02:38:21.814Z,17.28
2018-06-02T02:39:21.774Z,17.28
2018-06-02T02:40:21.778Z,17.26
2018-06-02T02:41:21.734Z,17.25
2018-06-02T02:42:21.775Z,17.24
2018-06-02T02:43:21.860Z,17.21
2018-06-02T02:44:21.783Z,17.21
2018-06-02T02:45:21.868Z,17.20
2018-06-02T02:46:21.854Z,17.18
2018-06-02T02:47:21.783Z,17.16
2018-06-02T02:48:21.853Z,17.16
2018-06-02T02:49:21.778Z,17.14
2018-06-02T02:50:21.780Z,17.14
2018-06-02T02:51:21.854Z,17.14
2018-06-02T02:52:21.857Z,17.13
2018-06-02T02:53:21.782Z,17.13
2018-06-02T02:54:21.857Z,17.12
2018-06-02T02:55:21.855Z,17.10
2018-06-02T02:56:21.782Z,17.12
2018-06-02T02:57:21.854Z,17.12
2018-06-02T02:58:21.867Z,17.14
2018-06-02T02:59:21.887Z,17.12
2018-06-02T03:00:21.888Z,17.13
2018-06-02T03:01:21.858Z,17.12
2018-06-02T03:02:21.825Z,17.09
2018-06-02T03:03:21.915Z,17.10
2018-06-02T03:04:21.867Z,17.12
2018-06-02T03:05:21.842Z,17.12
2018-06-02T03:06:21.884Z,17.09
2018-06-02T03:07:21.901Z,17.10
2018-06-02T03:08:21.897Z,17.10
2018-06-02T03:09:21.880Z,17.10
2018-06-02T03:10:21.797Z,17.12
2018-06-02T03:11:21.752Z,17.10
2018-06-02T03:12:21.809Z,17.09
2018-06-02T03:13:21.824Z,17.09
2018-06-02T03:14:21.869Z,17.09
2018-06-02T03:15:21.798Z,17.10
2018-06-02T03:16:21.870Z,17.12
2018-06-02T03:17:21.800Z,17.13
2018-06-02T03:18:21.872Z,17.10
2018-06-02T03:19:21.793Z,17.10
2018-06-02T03:20:21.842Z,17.10
2018-06-02T03:21:21.911Z,17.09
2018-06-02T03:22:21.905Z,17.09
2018-06-02T03:24:21.887Z,17.08
2018-06-02T03:25:21.902Z,17.08
2018-06-02T03:26:21.778Z,17.08
2018-06-02T03:27:21.870Z,17.06
2018-06-02T03:28:21.800Z,17.08
2018-06-02T03:29:21.898Z,17.06
2018-06-02T03:30:21.880Z,17.08
2018-06-02T03:31:21.806Z,17.03
2018-06-02T03:32:21.866Z,17.05
2018-06-02T03:33:21.809Z,17.02
2018-06-02T03:34:21.883Z,17.03
2018-06-02T03:35:21.883Z,17.03
2018-06-02T03:36:21.885Z,17.03
2018-06-02T03:37:21.812Z,17.06
2018-06-02T03:38:21.815Z,17.08
2018-06-02T03:39:21.879Z,17.09
2018-06-02T03:40:21.787Z,17.08
2018-06-02T03:41:21.921Z,17.08
2018-06-02T03:42:21.858Z,17.08
2018-06-02T03:43:21.895Z,17.06
2018-06-02T03:44:21.906Z,17.05
2018-06-02T03:45:21.807Z,17.05
2018-06-02T03:46:21.922Z,17.06
2018-06-02T03:47:21.868Z,17.06
2018-06-02T03:48:21.860Z,17.06
2018-06-02T03:49:21.910Z,17.09
2018-06-02T03:50:21.850Z,17.03
2018-06-02T03:51:21.822Z,17.03
2018-06-02T03:52:21.820Z,17.03
2018-06-02T03:53:21.896Z,17.02
2018-06-02T03:54:21.827Z,17.03
2018-06-02T03:55:21.828Z,17.05
2018-06-02T03:56:21.895Z,17.05
2018-06-02T03:57:21.901Z,17.03
2018-06-02T03:58:21.825Z,17.03
2018-06-02T03:59:21.830Z,17.06
2018-06-02T04:00:21.878Z,17.05
2018-06-02T04:01:21.879Z,17.03
2018-06-02T04:02:21.831Z,17.06
2018-06-02T04:03:21.821Z,17.05
2018-06-02T04:04:21.887Z,17.06
2018-06-02T04:05:21.826Z,17.08
2018-06-02T04:06:21.878Z,17.09
2018-06-02T04:07:21.872Z,17.08
2018-06-02T04:08:21.796Z,17.08
2018-06-02T04:09:21.900Z,17.09
2018-06-02T04:10:21.874Z,17.08
2018-06-02T04:11:21.897Z,17.08
2018-06-02T04:12:21.845Z,17.08
2018-06-02T04:13:21.954Z,17.08
2018-06-02T04:14:21.840Z,17.10
2018-06-02T04:15:21.843Z,17.12
2018-06-02T04:16:21.825Z,17.12
2018-06-02T04:17:21.810Z,17.13
2018-06-02T04:18:21.885Z,17.14
2018-06-02T04:19:21.932Z,17.14
2018-06-02T04:20:21.839Z,17.14
2018-06-02T04:21:21.923Z,17.16
2018-06-02T04:22:21.910Z,17.16
2018-06-02T04:23:21.909Z,17.16
2018-06-02T04:24:21.840Z,17.20
2018-06-02T04:25:21.910Z,17.21
2018-06-02T04:26:21.843Z,17.21
2018-06-02T04:27:21.910Z,17.22
2018-06-02T04:28:21.846Z,17.24
2018-06-02T04:29:21.906Z,17.21
2018-06-02T04:30:21.830Z,17.21
2018-06-02T04:31:21.900Z,17.21
2018-06-02T04:32:21.820Z,17.24
2018-06-02T04:33:21.822Z,17.25
2018-06-02T04:34:21.834Z,17.25
2018-06-02T04:35:21.821Z,17.25
2018-06-02T04:36:21.909Z,17.25
2018-06-02T04:37:21.909Z,17.28
2018-06-02T04:38:21.926Z,17.29
2018-06-02T04:39:21.893Z,17.28
2018-06-02T04:40:21.925Z,17.29
2018-06-02T04:41:21.979Z,17.29
2018-06-02T04:42:21.942Z,17.29
2018-06-02T04:43:21.891Z,17.26
2018-06-02T04:44:21.947Z,17.28
2018-06-02T04:45:21.904Z,17.25
2018-06-02T04:46:21.941Z,17.22
2018-06-02T04:47:21.894Z,17.22
2018-06-02T04:48:21.894Z,17.22
2018-06-02T04:49:21.906Z,17.25
2018-06-02T04:50:21.924Z,17.22
2018-06-02T04:51:21.960Z,17.21
2018-06-02T04:52:21.850Z,17.22
2018-06-02T04:53:21.874Z,17.22
2018-06-02T04:54:21.963Z,17.21
2018-06-02T04:55:21.849Z,17.20
2018-06-02T04:56:21.894Z,17.21
2018-06-02T04:57:21.931Z,17.22
2018-06-02T04:58:21.990Z,17.21
2018-06-02T04:59:21.849Z,17.20
2018-06-02T05:00:21.877Z,17.18
2018-06-02T05:01:21.910Z,17.16
2018-06-02T05:02:21.838Z,17.16
2018-06-02T05:03:21.964Z,17.16
2018-06-02T05:04:21.864Z,17.16
2018-06-02T05:05:21.877Z,17.18
2018-06-02T05:06:21.941Z,17.18
2018-06-02T05:07:21.839Z,17.18
2018-06-02T05:08:21.966Z,17.18
2018-06-02T05:09:21.877Z,17.18
2018-06-02T05:10:21.941Z,17.18
2018-06-02T05:11:21.876Z,17.16
2018-06-02T05:12:21.943Z,17.18
2018-06-02T05:13:21.944Z,17.20
2018-06-02T05:14:21.947Z,17.16
2018-06-02T05:15:21.878Z,17.16
2018-06-02T05:16:21.947Z,17.14
2018-06-02T05:17:21.950Z,17.14
2018-06-02T05:18:21.879Z,17.16
2018-06-02T05:19:21.890Z,17.16
2018-06-02T05:20:21.947Z,17.16
2018-06-02T05:21:21.949Z,17.16
2018-06-02T05:22:21.950Z,17.18
2018-06-02T05:23:21.983Z,17.18
2018-06-02T05:24:21.955Z,17.18
2018-06-02T05:25:21.952Z,17.21
2018-06-02T05:26:21.890Z,17.21
2018-06-02T05:27:21.954Z,17.21
2018-06-02T05:28:21.890Z,17.21
2018-06-02T05:29:21.884Z,17.24
2018-06-02T05:30:21.958Z,17.25
2018-06-02T05:31:21.900Z,17.25
2018-06-02T05:32:21.981Z,17.26
2018-06-02T05:33:21.911Z,17.28
2018-06-02T05:34:21.959Z,17.26
2018-06-02T05:35:22.002Z,17.28
2018-06-02T05:36:21.960Z,17.31
2018-06-02T05:37:21.894Z,17.33
2018-06-02T05:38:21.969Z,17.35
2018-06-02T05:39:21.962Z,17.35
2018-06-02T05:40:21.961Z,17.35
2018-06-02T05:41:21.972Z,17.35
2018-06-02T05:42:21.996Z,17.36
2018-06-02T05:43:21.937Z,17.35
2018-06-02T05:44:21.930Z,17.35
2018-06-02T05:45:21.947Z,17.33
2018-06-02T05:46:21.923Z,17.36
2018-06-02T05:47:21.930Z,17.36
2018-06-02T05:48:21.893Z,17.37
2018-06-02T05:49:21.965Z,17.37
2018-06-02T05:50:21.974Z,17.35
2018-06-02T05:51:21.978Z,17.36
2018-06-02T05:52:21.998Z,17.35
2018-06-02T05:53:21.968Z,17.35
2018-06-02T05:54:21.973Z,17.36
2018-06-02T05:55:21.947Z,17.36
2018-06-02T05:56:21.925Z,17.36
2018-06-02T05:57:21.953Z,17.37
2018-06-02T05:58:21.974Z,17.36
2018-06-02T05:59:21.989Z,17.37
2018-06-02T06:00:21.894Z,17.36
2018-06-02T06:01:22.000Z,17.35
2018-06-02T06:02:21.974Z,17.35
2018-06-02T06:03:21.883Z,17.32
2018-06-02T06:04:22.008Z,17.33
2018-06-02T06:05:21.997Z,17.36
2018-06-02T06:06:21.975Z,17.35
2018-06-02T06:07:22.000Z,17.35
2018-06-02T06:08:21.949Z,17.36
2018-06-02T06:09:21.900Z,17.36
2018-06-02T06:10:22.011Z,17.36
2018-06-02T06:11:21.935Z,17.37
2018-06-02T06:12:21.899Z,17.37
2018-06-02T06:13:21.981Z,17.39
2018-06-02T06:14:21.964Z,17.39
2018-06-02T06:15:21.958Z,17.37
2018-06-02T06:16:22.002Z,17.37
2018-06-02T06:17:21.967Z,17.36
2018-06-02T06:18:21.984Z,17.33
2018-06-02T06:19:21.925Z,17.35
2018-06-02T06:20:21.986Z,17.37
2018-06-02T06:21:21.989Z,17.39
2018-06-02T06:22:21.929Z,17.36
2018-06-02T06:23:21.924Z,17.39
2018-06-02T06:24:21.923Z,17.36
2018-06-02T06:25:21.923Z,17.40
2018-06-02T06:26:21.963Z,17.43
2018-06-02T06:27:21.947Z,17.43
2018-06-02T06:28:21.923Z,17.40
2018-06-02T06:29:21.995Z,17.39
2018-06-02T06:30:21.912Z,17.37
2018-06-02T06:31:21.941Z,17.37
2018-06-02T06:32:21.922Z,17.39
2018-06-02T06:33:22.067Z,17.37
2018-06-02T06:34:21.991Z,17.36
2018-06-02T06:35:21.917Z,17.35
2018-06-02T06:36:21.873Z,17.37
2018-06-02T06:37:21.989Z,17.40
2018-06-02T06:38:21.902Z,17.37
2018-06-02T06:39:21.947Z,17.37
2018-06-02T06:40:22.028Z,17.37
2018-06-02T06:41:22.023Z,17.39
2018-06-02T06:42:22.024Z,17.43
2018-06-02T06:43:22.043Z,17.46
2018-06-02T06:44:22.056Z,17.49
2018-06-02T06:45:21.982Z,17.49
2018-06-02T06:46:22.004Z,17.49
2018-06-02T06:47:21.945Z,17.51
2018-06-02T06:48:21.957Z,17.55
2018-06-02T06:49:22.025Z,17.58
2018-06-02T06:50:21.915Z,17.61
2018-06-02T06:51:21.989Z,17.58
2018-06-02T06:52:22.014Z,17.57
2018-06-02T06:53:22.039Z,17.58
2018-06-02T06:54:22.007Z,17.60
2018-06-02T06:55:22.019Z,17.60
2018-06-02T06:56:22.106Z,17.62
2018-06-02T06:57:21.988Z,17.66
2018-06-02T06:58:21.982Z,17.65
2018-06-02T06:59:22.013Z,17.65
2018-06-02T07:00:21.946Z,17.66
2018-06-02T07:01:22.017Z,17.71
2018-06-02T07:02:21.950Z,17.75
2018-06-02T07:03:21.951Z,17.75
2018-06-02T07:04:21.901Z,17.77
2018-06-02T07:05:21.952Z,17.77
2018-06-02T07:06:22.016Z,17.73
2018-06-02T07:07:21.973Z,17.73
2018-06-02T07:08:22.023Z,17.75
2018-06-02T07:09:21.983Z,17.75
2018-06-02T07:10:21.947Z,17.76
2018-06-02T07:11:22.084Z,17.76
2018-06-02T07:12:21.983Z,17.79
2018-06-02T07:13:22.065Z,17.79
2018-06-02T07:14:22.062Z,17.79
2018-06-02T07:15:22.004Z,17.80
2018-06-02T07:16:22.064Z,17.83
2018-06-02T07:17:22.005Z,17.85
2018-06-02T07:18:21.945Z,17.88
2018-06-02T07:19:22.010Z,17.91
2018-06-02T07:20:22.059Z,17.94
2018-06-02T07:21:21.992Z,17.98
2018-06-02T07:22:22.074Z,18.03
2018-06-02T07:23:22.027Z,18.09
2018-06-02T07:24:22.013Z,18.10
2018-06-02T07:25:21.938Z,18.16
2018-06-02T07:26:22.060Z,18.14
2018-06-02T07:27:22.034Z,18.24
2018-06-02T07:28:22.054Z,18.36
2018-06-02T07:29:22.033Z,18.44
2018-06-02T07:30:21.976Z,18.51
2018-06-02T07:31:22.064Z,18.52
2018-06-02T07:32:22.065Z,18.59
2018-06-02T07:33:21.952Z,18.61
2018-06-02T07:34:22.079Z,18.65
2018-06-02T07:35:22.063Z,18.70
2018-06-02T07:36:21.956Z,18.62
2018-06-02T07:37:21.979Z,18.51
2018-06-02T07:38:21.941Z,18.46
2018-06-02T07:39:22.059Z,18.34
2018-06-02T07:40:22.059Z,18.29
2018-06-02T07:41:21.975Z,18.35
2018-06-02T07:42:21.979Z,18.34
2018-06-02T07:43:22.045Z,18.35
2018-06-02T07:44:22.067Z,18.31
2018-06-02T07:45:22.046Z,18.29
2018-06-02T07:46:21.977Z,18.28
2018-06-02T07:47:22.049Z,18.27
2018-06-02T07:48:22.047Z,18.21
2018-06-02T07:49:22.049Z,18.18
2018-06-02T07:50:22.049Z,18.18
2018-06-02T07:51:22.051Z,18.16
2018-06-02T07:52:22.049Z,18.20
2018-06-02T07:53:21.983Z,18.20
2018-06-02T07:54:22.052Z,18.23
2018-06-02T07:55:22.057Z,18.23
2018-06-02T07:56:21.980Z,18.18
2018-06-02T07:57:21.950Z,18.21
2018-06-02T07:58:21.983Z,18.27
2018-06-02T07:59:22.094Z,18.35
2018-06-02T08:00:22.054Z,18.43
2018-06-02T08:01:22.030Z,18.47
2018-06-02T08:02:22.059Z,18.50
2018-06-02T08:03:22.057Z,18.57
2018-06-02T08:04:21.988Z,18.58
2018-06-02T08:05:22.065Z,18.65
2018-06-02T08:06:22.061Z,18.72
2018-06-02T08:07:22.064Z,18.81
2018-06-02T08:08:22.000Z,18.88
2018-06-02T08:09:22.061Z,18.88
2018-06-02T08:10:21.970Z,18.83
2018-06-02T08:11:22.055Z,18.80
2018-06-02T08:12:21.986Z,18.83
2018-06-02T08:13:22.058Z,18.83
2018-06-02T08:14:22.057Z,18.91
2018-06-02T08:15:22.056Z,18.98
2018-06-02T08:16:22.064Z,18.98
2018-06-02T08:17:22.065Z,18.98
2018-06-02T08:18:21.987Z,18.99
2018-06-02T08:19:22.064Z,18.99
2018-06-02T08:20:22.070Z,18.97
2018-06-02T08:21:22.044Z,19.03
2018-06-02T08:22:22.047Z,19.09
2018-06-02T08:23:22.128Z,19.17
2018-06-02T08:24:22.105Z,19.17
2018-06-02T08:25:22.070Z,19.21
2018-06-02T08:26:22.042Z,19.29
2018-06-02T08:27:22.008Z,19.39
2018-06-02T08:28:22.079Z,19.50
2018-06-02T08:29:22.010Z,19.57
2018-06-02T08:30:22.110Z,19.62
2018-06-02T08:31:22.011Z,19.68
2018-06-02T08:32:22.077Z,19.60
2018-06-02T08:33:22.126Z,19.68
2018-06-02T08:34:22.108Z,19.68
2018-06-02T08:35:22.075Z,19.77
2018-06-02T08:36:22.059Z,19.81
2018-06-02T08:37:22.079Z,19.87
2018-06-02T08:38:22.049Z,19.92
2018-06-02T08:39:21.999Z,19.90
2018-06-02T08:40:22.082Z,19.87
2018-06-02T08:41:22.015Z,19.85
2018-06-02T08:42:22.082Z,19.84
2018-06-02T08:43:22.018Z,19.80
2018-06-02T08:44:22.084Z,19.81
2018-06-02T08:45:22.018Z,19.90
2018-06-02T08:46:22.158Z,19.90
2018-06-02T08:47:22.033Z,19.92
2018-06-02T08:48:22.089Z,19.96
2018-06-02T08:49:22.019Z,19.99
2018-06-02T08:50:22.018Z,20.03
2018-06-02T08:51:22.110Z,20.10
2018-06-02T08:52:22.111Z,20.10
2018-06-02T08:53:22.026Z,20.13
2018-06-02T08:54:22.136Z,20.10
2018-06-02T08:55:22.060Z,20.10
2018-06-02T08:56:22.027Z,20.17
2018-06-02T08:57:22.110Z,20.18
2018-06-02T08:58:22.112Z,20.18
2018-06-02T08:59:22.095Z,20.14
2018-06-02T09:00:22.120Z,20.10
2018-06-02T09:01:22.031Z,20.09
2018-06-02T09:02:21.996Z,19.99
2018-06-02T09:03:22.036Z,19.91
2018-06-02T09:04:22.089Z,19.72
2018-06-02T09:05:22.106Z,19.73
2018-06-02T09:06:22.018Z,19.70
2018-06-02T09:07:22.053Z,19.64
2018-06-02T09:08:21.976Z,19.62
2018-06-02T09:09:22.030Z,19.66
2018-06-02T09:10:22.077Z,19.66
2018-06-02T09:11:22.082Z,19.72
2018-06-02T09:12:22.084Z,19.74
2018-06-02T09:13:22.042Z,19.77
2018-06-02T09:14:22.081Z,19.84
2018-06-02T09:15:22.065Z,19.79
2018-06-02T09:16:22.143Z,19.80
2018-06-02T09:17:22.104Z,19.81
2018-06-02T09:18:22.105Z,19.84
2018-06-02T09:19:22.008Z,19.84
2018-06-02T09:20:22.033Z,19.74
2018-06-02T09:21:22.143Z,19.68
2018-06-02T09:22:22.108Z,19.66
2018-06-02T09:23:22.068Z,19.60
2018-06-02T09:24:22.142Z,19.60
2018-06-02T09:25:22.129Z,19.57
2018-06-02T09:26:22.081Z,19.49
2018-06-02T09:27:22.142Z,19.51
2018-06-02T09:28:22.016Z,19.50
2018-06-02T09:29:22.113Z,19.53
2018-06-02T09:30:22.107Z,19.47
2018-06-02T09:31:22.015Z,19.50
2018-06-02T09:32:22.113Z,19.49
2018-06-02T09:33:22.092Z,19.57
2018-06-02T09:34:22.165Z,19.64
2018-06-02T09:35:22.126Z,19.81
2018-06-02T09:36:22.117Z,19.96
2018-06-02T09:37:22.080Z,20.01
2018-06-02T09:38:22.122Z,19.95
2018-06-02T09:39:22.026Z,20.07
2018-06-02T09:40:22.024Z,20.20
2018-06-02T09:41:22.040Z,20.24
2018-06-02T09:42:22.115Z,20.36
2018-06-02T09:43:22.080Z,20.50
2018-06-02T09:44:22.112Z,20.50
2018-06-02T09:45:22.066Z,20.52
2018-06-02T09:46:22.115Z,20.60
2018-06-02T09:47:22.117Z,20.76
2018-06-02T09:48:22.030Z,20.77
2018-06-02T09:49:22.036Z,20.84
2018-06-02T09:50:22.074Z,20.84
2018-06-02T09:51:22.035Z,20.82
2018-06-02T09:52:22.074Z,20.68
2018-06-02T09:53:22.073Z,20.76
2018-06-02T09:54:22.052Z,20.91
2018-06-02T09:55:22.058Z,21.05
2018-06-02T09:56:22.119Z,20.98
2018-06-02T09:57:22.126Z,21.05
2018-06-02T09:58:22.051Z,21.25
2018-06-02T09:59:22.075Z,21.34
2018-06-02T10:00:22.132Z,21.32
2018-06-02T10:01:22.075Z,21.25
2018-06-02T10:02:22.112Z,21.29
2018-06-02T10:03:22.169Z,21.21
2018-06-02T10:04:22.108Z,21.04
2018-06-02T10:05:22.112Z,20.84
2018-06-02T10:06:22.134Z,20.65
2018-06-02T10:07:22.115Z,20.49
2018-06-02T10:08:22.137Z,20.56
2018-06-02T10:09:22.167Z,20.60
2018-06-02T10:10:22.171Z,20.52
2018-06-02T10:11:22.138Z,20.52
2018-06-02T10:12:22.063Z,20.46
2018-06-02T10:13:22.138Z,20.41
2018-06-02T10:14:22.146Z,20.39
2018-06-02T10:15:22.141Z,20.47
2018-06-02T10:16:22.129Z,20.53
2018-06-02T10:17:22.048Z,20.58
2018-06-02T10:18:22.207Z,20.52
2018-06-02T10:19:22.083Z,20.53
2018-06-02T10:20:22.187Z,20.47
2018-06-02T10:21:22.174Z,20.60
2018-06-02T10:22:22.111Z,20.60
2018-06-02T10:23:22.176Z,20.60
2018-06-02T10:24:22.114Z,20.65
2018-06-02T10:25:22.070Z,20.66
2018-06-02T10:26:22.152Z,20.70
2018-06-02T10:27:22.176Z,20.76
2018-06-02T10:28:22.091Z,20.75
2018-06-02T10:29:22.094Z,20.77
2018-06-02T10:30:22.127Z,20.88
2018-06-02T10:31:22.180Z,20.97
2018-06-02T10:32:22.213Z,21.13
2018-06-02T10:33:22.189Z,21.10
2018-06-02T10:34:22.127Z,21.05
2018-06-02T10:35:22.243Z,21.09
2018-06-02T10:36:22.159Z,21.10
2018-06-02T10:37:22.190Z,21.10
2018-06-02T10:38:22.117Z,21.17
2018-06-02T10:39:22.190Z,21.08
2018-06-02T10:40:22.160Z,21.01
2018-06-02T10:41:22.186Z,20.97
2018-06-02T10:42:22.130Z,20.99
2018-06-02T10:43:22.199Z,21.02
2018-06-02T10:44:22.232Z,20.98
2018-06-02T10:45:22.186Z,21.05
2018-06-02T10:46:22.167Z,21.01
2018-06-02T10:47:22.160Z,20.99
2018-06-02T10:48:22.200Z,20.97
2018-06-02T10:49:22.106Z,21.05
2018-06-02T10:50:22.194Z,21.20
2018-06-02T10:51:22.087Z,21.31
2018-06-02T10:52:22.189Z,21.31
2018-06-02T10:53:22.131Z,21.35
2018-06-02T10:54:22.108Z,21.39
2018-06-02T10:55:22.201Z,21.32
2018-06-02T10:56:22.208Z,21.31
2018-06-02T10:57:22.168Z,21.25
2018-06-02T10:58:22.187Z,21.20
2018-06-02T10:59:22.193Z,21.20
2018-06-02T11:00:22.106Z,21.16
2018-06-02T11:01:22.183Z,21.13
2018-06-02T11:02:22.112Z,21.06
2018-06-02T11:03:22.109Z,20.97
2018-06-02T11:04:22.110Z,20.91
2018-06-02T11:05:22.178Z,20.87
2018-06-02T11:06:22.175Z,20.77
2018-06-02T11:07:22.177Z,20.72
2018-06-02T11:08:22.178Z,20.76
2018-06-02T11:09:22.116Z,20.75
2018-06-02T11:10:22.181Z,20.70
2018-06-02T11:11:22.170Z,20.65
2018-06-02T11:12:22.104Z,20.57
2018-06-02T11:13:22.142Z,20.54
2018-06-02T11:14:22.154Z,20.50
2018-06-02T11:15:22.174Z,20.57
2018-06-02T11:16:22.144Z,20.58
2018-06-02T11:17:22.103Z,20.66
2018-06-02T11:18:22.091Z,20.77
2018-06-02T11:19:22.176Z,20.86
2018-06-02T11:20:22.180Z,20.95
2018-06-02T11:21:22.155Z,20.99
2018-06-02T11:22:22.092Z,21.05
2018-06-02T11:23:22.189Z,21.10
2018-06-02T11:24:22.235Z,21.13
2018-06-02T11:25:22.092Z,21.01
2018-06-02T11:26:22.190Z,20.95
2018-06-02T11:27:22.229Z,20.94
2018-06-02T11:28:22.203Z,20.94
2018-06-02T11:29:22.223Z,20.87
2018-06-02T11:30:22.194Z,20.80
2018-06-02T11:31:22.224Z,20.79
2018-06-02T11:32:22.234Z,20.75
2018-06-02T11:33:22.169Z,20.79
2018-06-02T11:34:22.192Z,20.84
2018-06-02T11:35:22.228Z,20.84
2018-06-02T11:36:22.166Z,20.77
2018-06-02T11:37:22.218Z,20.82
2018-06-02T11:38:22.118Z,20.87
2018-06-02T11:39:22.163Z,20.88
2018-06-02T11:40:22.258Z,20.84
2018-06-02T11:41:22.135Z,20.75
2018-06-02T11:42:22.134Z,20.65
2018-06-02T11:43:22.140Z,20.54
2018-06-02T11:44:22.298Z,20.47
2018-06-02T11:45:22.222Z,20.43
2018-06-02T11:46:22.219Z,20.39
2018-06-02T11:47:22.138Z,20.36
2018-06-02T11:48:22.137Z,20.32
2018-06-02T11:49:22.144Z,20.35
2018-06-02T11:50:22.209Z,20.30
2018-06-02T11:51:22.213Z,20.28
2018-06-02T11:52:22.133Z,20.31
2018-06-02T11:53:22.132Z,20.32
2018-06-02T11:54:22.174Z,20.32
2018-06-02T11:55:22.165Z,20.32
2018-06-02T11:56:22.273Z,20.28
2018-06-02T11:57:22.207Z,20.28
2018-06-02T11:58:22.246Z,20.24
2018-06-02T11:59:22.215Z,20.21
2018-06-02T12:00:22.114Z,20.25
2018-06-02T12:01:22.233Z,20.30
2018-06-02T12:02:22.187Z,20.32
2018-06-02T12:03:22.236Z,20.38
2018-06-02T12:04:22.125Z,20.38
2018-06-02T12:05:22.257Z,20.42
2018-06-02T12:06:22.192Z,20.42
2018-06-02T12:07:22.220Z,20.47
2018-06-02T12:08:22.281Z,20.52
2018-06-02T12:09:22.142Z,20.56
2018-06-02T12:10:22.218Z,20.52
2018-06-02T12:11:22.260Z,20.61
2018-06-02T12:12:22.256Z,20.70
2018-06-02T12:13:22.186Z,20.77
2018-06-02T12:14:22.141Z,20.84
2018-06-02T12:15:22.262Z,20.91
2018-06-02T12:16:22.232Z,21.02
2018-06-02T12:17:22.152Z,21.10
2018-06-02T12:18:22.227Z,21.14
2018-06-02T12:19:22.248Z,21.14
2018-06-02T12:20:22.248Z,21.14
2018-06-02T12:21:22.253Z,21.22
2018-06-02T12:22:22.149Z,21.32
2018-06-02T12:23:22.170Z,21.29
2018-06-02T12:24:22.198Z,21.27
2018-06-02T12:25:22.228Z,21.25
2018-06-02T12:26:22.199Z,21.24
2018-06-02T12:27:22.237Z,21.20
2018-06-02T12:28:22.293Z,21.14
2018-06-02T12:29:22.253Z,21.02
2018-06-02T12:30:22.221Z,20.97
2018-06-02T12:31:22.236Z,20.84
2018-06-02T12:32:22.235Z,20.76
2018-06-02T12:33:22.175Z,20.68
2018-06-02T12:34:22.211Z,20.68
2018-06-02T12:35:22.171Z,20.65
2018-06-02T12:36:22.240Z,20.60
2018-06-02T12:37:22.170Z,20.56
2018-06-02T12:38:22.197Z,20.56
2018-06-02T12:39:22.241Z,20.58
2018-06-02T12:40:22.175Z,20.60
2018-06-02T12:41:22.195Z,20.61
2018-06-02T12:42:22.161Z,20.56
2018-06-02T12:43:22.118Z,20.57
2018-06-02T12:44:22.163Z,20.53
2018-06-02T12:45:22.189Z,20.49
2018-06-02T12:46:22.240Z,20.49
2018-06-02T12:47:22.232Z,20.47
2018-06-02T12:48:22.285Z,20.50
2018-06-02T12:49:22.240Z,20.52
2018-06-02T12:50:22.232Z,20.50
2018-06-02T12:51:22.185Z,20.52
2018-06-02T12:52:22.147Z,20.53
2018-06-02T12:53:22.162Z,20.45